createdAt,value
2022-12-31T00:00:40.796Z,98675.04
2022-12-31T00:05:42.526Z,98674.30
2022-12-31T00:10:44.672Z,98656.20
2022-12-31T00:15:46.508Z,98653.09
2022-12-31T00:20:48.181Z,98667.66
2022-12-31T00:25:49.890Z,98670.05
2022-12-31T00:30:51.648Z,98664.95
2022-12-31T00:35:53.406Z,98669.85
2022-12-31T00:40:55.144Z,98672.22
2022-12-31T00:45:56.999Z,98670.79
2022-12-31T00:50:59.826Z,98677.42
2022-12-31T00:56:11.601Z,98687.05
2022-12-31T01:01:21.490Z,98687.73
2022-12-31T01:06:23.460Z,98682.14
2022-12-31T01:11:29.367Z,98682.91
2022-12-31T01:16:48.786Z,98678.08
2022-12-31T01:21:51.396Z,98700.11
2022-12-31T01:26:56.004Z,98702.48
2022-12-31T01:31:57.799Z,98701.05
2022-12-31T01:36:59.835Z,98699.35
2022-12-31T01:42:01.578Z,98691.98
2022-12-31T01:47:06.015Z,98703.40
2022-12-31T01:52:17.372Z,98699.76
2022-12-31T01:57:19.889Z,98682.45
2022-12-31T02:02:21.967Z,98693.92
2022-12-31T02:07:24.183Z,98708.38
2022-12-31T02:12:25.979Z,98701.82
2022-12-31T02:17:40.235Z,98690.95
2022-12-31T02:23:06.466Z,98675.17
2022-12-31T02:28:39.653Z,98679.27
2022-12-31T02:33:50.989Z,98684.52
2022-12-31T02:38:52.782Z,98667.05
2022-12-31T02:43:54.517Z,98654.86
2022-12-31T02:49:18.154Z,98641.33
2022-12-31T02:54:31.076Z,98645.46
2022-12-31T03:00:16.416Z,98665.80
2022-12-31T03:05:23.241Z,98695.34
2022-12-31T03:10:25.575Z,98695.18
2022-12-31T03:15:30.405Z,98691.75
2022-12-31T03:20:52.431Z,98696.45
2022-12-31T03:25:56.468Z,98689.64
2022-12-31T03:31:03.244Z,98686.79
2022-12-31T03:36:07.507Z,98681.23
2022-12-31T03:41:11.105Z,98686.45
2022-12-31T03:46:12.853Z,98687.95
2022-12-31T03:51:14.616Z,98701.92
2022-12-31T03:56:16.312Z,98698.20
2022-12-31T04:01:18.202Z,98707.14
2022-12-31T04:06:19.983Z,98715.77
2022-12-31T04:11:21.738Z,98721.20
2022-12-31T04:16:23.446Z,98726.96
2022-12-31T04:21:26.841Z,98718.34
2022-12-31T04:26:32.069Z,98721.86
2022-12-31T04:31:33.913Z,98727.39
2022-12-31T04:36:35.869Z,98734.14
2022-12-31T04:41:37.891Z,98743.40
2022-12-31T04:46:39.691Z,98755.08
2022-12-31T04:51:41.548Z,98756.51
2022-12-31T04:56:43.317Z,98758.45
2022-12-31T05:01:45.133Z,98753.09
2022-12-31T05:06:47.129Z,98750.77
2022-12-31T05:11:48.920Z,98754.91
2022-12-31T05:16:51.211Z,98750.52
2022-12-31T05:22:11.535Z,98748.48
2022-12-31T05:27:13.378Z,98736.82
2022-12-31T05:32:15.147Z,98734.38
2022-12-31T05:37:16.860Z,98743.77
2022-12-31T05:42:18.733Z,98743.88
2022-12-31T05:47:20.694Z,98746.52
2022-12-31T05:52:22.461Z,98742.38
2022-12-31T05:57:24.236Z,98758.40
2022-12-31T06:02:26.743Z,98766.52
2022-12-31T06:07:28.706Z,98776.11
2022-12-31T06:12:30.647Z,98767.42
2022-12-31T06:17:32.660Z,98765.40
2022-12-31T06:22:34.435Z,98758.30
2022-12-31T06:27:36.293Z,98749.98
2022-12-31T06:32:39.354Z,98756.04
2022-12-31T06:37:41.146Z,98761.09
2022-12-31T06:42:42.929Z,98766.83
2022-12-31T06:47:44.611Z,98770.52
2022-12-31T06:52:46.393Z,98779.36
2022-12-31T06:57:48.388Z,98791.45
2022-12-31T07:03:09.759Z,98792.67
2022-12-31T07:08:33.018Z,98806.63
2022-12-31T07:13:53.678Z,98807.88
2022-12-31T07:19:35.950Z,98806.29
2022-12-31T07:24:37.936Z,98801.52
2022-12-31T07:30:01.941Z,98802.13
2022-12-31T07:35:12.219Z,98813.86
2022-12-31T07:40:52.061Z,98817.29
2022-12-31T07:46:12.159Z,98817.94
2022-12-31T07:51:14.330Z,98823.55
2022-12-31T07:56:16.114Z,98829.32
2022-12-31T08:01:34.891Z,98829.96
2022-12-31T08:06:48.809Z,98840.48
2022-12-31T08:11:58.366Z,98841.84
2022-12-31T08:17:00.656Z,98829.58
2022-12-31T08:22:24.035Z,98826.86
2022-12-31T08:27:53.478Z,98831.49
2022-12-31T08:33:18.569Z,98846.88
2022-12-31T08:38:45.598Z,98854.88
2022-12-31T08:44:05.866Z,98855.51
2022-12-31T08:49:09.832Z,98865.91
2022-12-31T08:54:12.428Z,98858.15
2022-12-31T08:59:42.875Z,98851.00
2022-12-31T09:05:00.053Z,98835.24
2022-12-31T09:10:20.852Z,98837.46
2022-12-31T09:15:33.955Z,98836.42
2022-12-31T09:20:44.739Z,98845.98
2022-12-31T09:26:22.504Z,98837.10
2022-12-31T09:31:48.907Z,98829.83
2022-12-31T09:37:05.007Z,98830.16
2022-12-31T09:42:51.827Z,98832.63
2022-12-31T09:48:35.989Z,98841.58
2022-12-31T09:53:47.101Z,98828.70
2022-12-31T09:59:07.240Z,98824.52
2022-12-31T10:04:27.771Z,98832.59
2022-12-31T10:10:03.758Z,98824.32
2022-12-31T10:15:34.959Z,98816.28
2022-12-31T10:21:01.244Z,98827.54
2022-12-31T10:26:06.143Z,98824.87
2022-12-31T10:31:34.413Z,98815.41
2022-12-31T10:36:51.917Z,98817.81
2022-12-31T10:42:05.746Z,98816.80
2022-12-31T10:47:52.803Z,98822.21
2022-12-31T10:53:11.446Z,98836.40
2022-12-31T10:58:34.831Z,98837.51
2022-12-31T11:03:58.854Z,98837.32
2022-12-31T11:09:27.459Z,98833.55
2022-12-31T11:15:07.695Z,98829.66
2022-12-31T11:20:31.612Z,98825.85
2022-12-31T11:25:38.602Z,98818.04
2022-12-31T11:31:20.100Z,98821.63
2022-12-31T11:36:37.716Z,98826.92
2022-12-31T11:41:50.973Z,98835.02
2022-12-31T11:46:59.127Z,98830.41
2022-12-31T11:52:22.536Z,98830.17
2022-12-31T11:57:34.981Z,98817.86
2022-12-31T12:02:43.955Z,98809.63
2022-12-31T12:07:47.054Z,98814.17
2022-12-31T12:12:49.724Z,98809.52
2022-12-31T12:18:01.709Z,98802.59
2022-12-31T12:23:16.116Z,98793.54
2022-12-31T12:28:23.910Z,98796.98
2022-12-31T12:33:26.212Z,98803.38
2022-12-31T12:38:27.905Z,98807.59
2022-12-31T12:43:32.440Z,98804.08
2022-12-31T12:48:44.886Z,98790.41
2022-12-31T12:54:14.237Z,98778.21
2022-12-31T12:59:43.888Z,98778.48
2022-12-31T13:05:27.883Z,98771.48
2022-12-31T13:11:09.111Z,98770.54
2022-12-31T13:16:40.902Z,98778.00
2022-12-31T13:21:55.797Z,98786.77
2022-12-31T13:27:04.651Z,98785.27
2022-12-31T13:32:11.139Z,98783.25
2022-12-31T13:37:39.566Z,98785.27
2022-12-31T13:42:55.151Z,98793.48
2022-12-31T13:48:05.776Z,98806.61
2022-12-31T13:53:20.197Z,98801.48
2022-12-31T13:58:40.961Z,98803.11
2022-12-31T14:04:14.488Z,98802.98
2022-12-31T14:09:28.326Z,98805.59
2022-12-31T14:14:46.113Z,98821.13
2022-12-31T14:19:55.931Z,98820.54
2022-12-31T14:25:00.840Z,98814.04
2022-12-31T14:30:27.816Z,98816.69
2022-12-31T14:35:37.760Z,98817.58
2022-12-31T14:41:13.109Z,98815.34
2022-12-31T14:46:33.156Z,98815.96
2022-12-31T14:51:35.124Z,98817.53
2022-12-31T14:56:41.824Z,98818.02
2022-12-31T15:01:46.742Z,98824.70
2022-12-31T15:07:04.365Z,98831.03
2022-12-31T15:12:25.045Z,98825.11
2022-12-31T15:17:35.701Z,98827.39
2022-12-31T15:22:40.452Z,98830.77
2022-12-31T15:27:47.162Z,98836.39
2022-12-31T15:32:49.174Z,98844.34
2022-12-31T15:38:16.942Z,98857.54
2022-12-31T15:43:25.040Z,98855.79
2022-12-31T15:48:46.189Z,98866.64
2022-12-31T15:53:56.622Z,98869.56
2022-12-31T15:59:01.669Z,98867.39
2022-12-31T16:04:07.778Z,98863.45
2022-12-31T16:09:36.147Z,98861.16
2022-12-31T16:14:44.895Z,98874.13
2022-12-31T16:19:47.150Z,98875.42
2022-12-31T16:30:32.074Z,98875.13
2022-12-31T16:35:36.881Z,98888.77
2022-12-31T16:40:40.507Z,98898.16
2022-12-31T16:45:42.313Z,98900.91
2022-12-31T16:50:47.012Z,98901.70
2022-12-31T16:56:09.392Z,98899.30
2022-12-31T17:01:19.180Z,98916.42
2022-12-31T17:06:22.326Z,98911.04
2022-12-31T17:11:30.281Z,98906.52
2022-12-31T17:16:34.872Z,98905.95
2022-12-31T17:21:36.661Z,98901.08
2022-12-31T17:26:38.518Z,98903.29
2022-12-31T17:31:43.705Z,98904.20
2022-12-31T17:37:00.156Z,98917.06
2022-12-31T17:42:02.028Z,98925.03
2022-12-31T17:47:04.274Z,98933.66
2022-12-31T17:52:11.994Z,98934.75
2022-12-31T17:57:28.116Z,98928.77
2022-12-31T18:02:29.907Z,98928.27
2022-12-31T18:07:32.022Z,98929.02
2022-12-31T18:12:35.441Z,98938.14
2022-12-31T18:17:37.212Z,98936.51
2022-12-31T18:22:41.244Z,98938.83
2022-12-31T18:27:43.086Z,98941.41
2022-12-31T18:32:45.959Z,98943.02
2022-12-31T18:37:47.687Z,98935.77
2022-12-31T18:42:49.464Z,98936.69
2022-12-31T18:47:51.203Z,98937.65
2022-12-31T18:52:52.895Z,98941.19
2022-12-31T18:57:54.623Z,98949.73
2022-12-31T19:02:56.476Z,98950.29
2022-12-31T19:07:58.774Z,98950.92
2022-12-31T19:13:00.531Z,98953.13
2022-12-31T19:18:03.199Z,98953.91
2022-12-31T19:23:05.725Z,98955.95
2022-12-31T19:28:16.144Z,98956.55
2022-12-31T19:33:18.677Z,98940.34
2022-12-31T19:38:23.852Z,98946.30
2022-12-31T19:43:25.635Z,98953.80
2022-12-31T19:48:32.554Z,98951.73
2022-12-31T19:53:34.729Z,98951.72
2022-12-31T19:58:36.524Z,98950.05
2022-12-31T20:03:38.313Z,98954.73
2022-12-31T20:08:43.391Z,98962.05
2022-12-31T20:13:47.395Z,98966.91
2022-12-31T20:18:50.791Z,98960.09
2022-12-31T20:23:54.046Z,98952.58
2022-12-31T20:28:55.738Z,98948.38
2022-12-31T20:33:57.520Z,98952.92
2022-12-31T20:38:59.283Z,98953.62
2022-12-31T20:44:01.354Z,98946.12
2022-12-31T20:49:04.813Z,98941.36
2022-12-31T20:54:10.187Z,98938.40
2022-12-31T20:59:11.971Z,98933.96
2022-12-31T21:04:13.872Z,98920.51
2022-12-31T21:09:15.752Z,98924.64
2022-12-31T21:14:17.495Z,98920.41
2022-12-31T21:19:19.294Z,98929.14
2022-12-31T21:24:24.063Z,98937.81
2022-12-31T21:29:28.845Z,98936.38
2022-12-31T21:34:34.518Z,98946.48
2022-12-31T21:39:36.277Z,98952.40
2022-12-31T21:44:38.019Z,98951.92
2022-12-31T21:49:39.738Z,98958.59
2022-12-31T21:55:00.246Z,98965.30
2022-12-31T22:05:47.371Z,98979.82
2022-12-31T22:10:52.753Z,98983.30
2022-12-31T22:16:03.997Z,98982.58
2022-12-31T22:21:19.208Z,98982.02
2022-12-31T22:26:25.293Z,98977.12
2022-12-31T22:31:32.667Z,98981.60
2022-12-31T22:36:34.650Z,98983.44
2022-12-31T22:41:36.530Z,98986.85
2022-12-31T22:46:38.323Z,98981.81
2022-12-31T22:51:57.470Z,98984.60
2022-12-31T22:57:01.287Z,98988.27
2022-12-31T23:02:03.118Z,98987.23
2022-12-31T23:07:04.861Z,98988.09
2022-12-31T23:12:08.801Z,98989.00
2022-12-31T23:17:38.011Z,98991.05
2022-12-31T23:22:58.556Z,98990.89
2022-12-31T23:28:00.918Z,98983.77
2022-12-31T23:33:02.727Z,98989.02
2022-12-31T23:38:04.471Z,98993.62
2022-12-31T23:43:08.036Z,98996.26
2022-12-31T23:48:09.761Z,99000.95
2022-12-31T23:53:11.559Z,99001.31
2022-12-31T23:58:13.403Z,98995.77
